sensor_id;sensor_type;location;lat;lon;timestamp;temperature;humidity
52495;DHT22;38405;53.212;5.660;2023-03-31T00:02:08;9.20;99.90
52495;DHT22;38405;53.212;5.660;2023-03-31T00:04:41;9.40;99.90
52495;DHT22;38405;53.212;5.660;2023-03-31T00:07:14;9.20;99.90
52495;DHT22;38405;53.212;5.660;2023-03-31T00:09:41;9.50;99.90
52495;DHT22;38405;53.212;5.660;2023-03-31T00:12:11;9.30;99.90
52495;DHT22;38405;53.212;5.660;2023-03-31T00:14:37;9.40;99.90
52495;DHT22;38405;53.212;5.660;2023-03-31T00:17:03;9.40;99.90
52495;DHT22;38405;53.212;5.660;2023-03-31T00:19:29;9.40;99.90
52495;DHT22;38405;53.212;5.660;2023-03-31T00:21:57;9.50;99.90
52495;DHT22;38405;53.212;5.660;2023-03-31T00:24:27;9.50;99.90
52495;DHT22;38405;53.212;5.660;2023-03-31T00:26:53;9.50;99.90
52495;DHT22;38405;53.212;5.660;2023-03-31T00:29:18;9.50;99.90
52495;DHT22;38405;53.212;5.660;2023-03-31T00:31:44;9.50;99.90
52495;DHT22;38405;53.212;5.660;2023-03-31T00:34:10;9.50;99.90
52495;DHT22;38405;53.212;5.660;2023-03-31T00:36:36;9.50;99.90
52495;DHT22;38405;53.212;5.660;2023-03-31T00:39:10;9.40;99.90
52495;DHT22;38405;53.212;5.660;2023-03-31T00:41:36;9.50;99.90
52495;DHT22;38405;53.212;5.660;2023-03-31T00:44:22;9.40;99.90
52495;DHT22;38405;53.212;5.660;2023-03-31T00:46:54;9.30;99.90
52495;DHT22;38405;53.212;5.660;2023-03-31T00:52:15;9.20;99.90
52495;DHT22;38405;53.212;5.660;2023-03-31T00:54:45;9.10;99.90
52495;DHT22;38405;53.212;5.660;2023-03-31T00:57:12;9.10;99.90
52495;DHT22;38405;53.212;5.660;2023-03-31T00:59:51;9.00;99.90
52495;DHT22;38405;53.212;5.660;2023-03-31T01:02:18;9.00;99.90
52495;DHT22;38405;53.212;5.660;2023-03-31T01:04:51;9.00;99.90
52495;DHT22;38405;53.212;5.660;2023-03-31T01:07:44;9.00;99.90
52495;DHT22;38405;53.212;5.660;2023-03-31T01:10:11;9.00;99.90
52495;DHT22;38405;53.212;5.660;2023-03-31T01:12:43;8.90;99.90
52495;DHT22;38405;53.212;5.660;2023-03-31T01:15:10;8.70;99.90
52495;DHT22;38405;53.212;5.660;2023-03-31T01:17:36;8.70;99.90
52495;DHT22;38405;53.212;5.660;2023-03-31T01:20:04;8.60;99.90
52495;DHT22;38405;53.212;5.660;2023-03-31T01:53:11;8.40;99.90
52495;DHT22;38405;53.212;5.660;2023-03-31T01:55:59;8.40;99.90
52495;DHT22;38405;53.212;5.660;2023-03-31T01:58:36;8.40;99.90
52495;DHT22;38405;53.212;5.660;2023-03-31T02:01:25;8.50;99.90
52495;DHT22;38405;53.212;5.660;2023-03-31T02:03:59;8.60;99.90
52495;DHT22;38405;53.212;5.660;2023-03-31T02:06:29;8.70;99.90
52495;DHT22;38405;53.212;5.660;2023-03-31T02:09:08;8.80;99.90
52495;DHT22;38405;53.212;5.660;2023-03-31T02:11:36;8.90;99.90
52495;DHT22;38405;53.212;5.660;2023-03-31T02:14:04;8.90;99.90
52495;DHT22;38405;53.212;5.660;2023-03-31T02:16:35;9.00;99.90
52495;DHT22;38405;53.212;5.660;2023-03-31T02:19:03;9.00;99.90
52495;DHT22;38405;53.212;5.660;2023-03-31T02:21:32;9.00;99.90
52495;DHT22;38405;53.212;5.660;2023-03-31T02:24:01;9.00;99.90
52495;DHT22;38405;53.212;5.660;2023-03-31T02:26:32;9.00;99.90
52495;DHT22;38405;53.212;5.660;2023-03-31T02:28:59;9.00;99.90
52495;DHT22;38405;53.212;5.660;2023-03-31T02:34:02;8.90;99.90
52495;DHT22;38405;53.212;5.660;2023-03-31T02:36:28;8.90;99.90
52495;DHT22;38405;53.212;5.660;2023-03-31T02:39:02;8.90;99.90
52495;DHT22;38405;53.212;5.660;2023-03-31T02:41:28;8.90;99.90
52495;DHT22;38405;53.212;5.660;2023-03-31T02:43:55;8.90;99.90
52495;DHT22;38405;53.212;5.660;2023-03-31T02:46:21;8.90;99.90
52495;DHT22;38405;53.212;5.660;2023-03-31T02:48:50;8.90;99.90
52495;DHT22;38405;53.212;5.660;2023-03-31T03:04:47;9.00;99.90
52495;DHT22;38405;53.212;5.660;2023-03-31T03:10:43;9.10;99.90
52495;DHT22;38405;53.212;5.660;2023-03-31T03:13:27;9.10;99.90
52495;DHT22;38405;53.212;5.660;2023-03-31T03:16:32;9.10;99.90
52495;DHT22;38405;53.212;5.660;2023-03-31T03:19:02;9.20;99.90
52495;DHT22;38405;53.212;5.660;2023-03-31T03:21:29;9.20;99.90
52495;DHT22;38405;53.212;5.660;2023-03-31T03:23:55;9.30;99.90
52495;DHT22;38405;53.212;5.660;2023-03-31T03:26:21;9.30;99.90
52495;DHT22;38405;53.212;5.660;2023-03-31T03:28:53;9.40;99.90
52495;DHT22;38405;53.212;5.660;2023-03-31T03:31:20;9.50;99.90
52495;DHT22;38405;53.212;5.660;2023-03-31T03:33:48;9.50;99.90
52495;DHT22;38405;53.212;5.660;2023-03-31T03:36:14;9.50;99.90
52495;DHT22;38405;53.212;5.660;2023-03-31T03:38:40;9.60;99.90
52495;DHT22;38405;53.212;5.660;2023-03-31T03:41:06;9.50;99.90
52495;DHT22;38405;53.212;5.660;2023-03-31T03:43:31;9.50;99.90
52495;DHT22;38405;53.212;5.660;2023-03-31T03:45:57;9.50;99.90
52495;DHT22;38405;53.212;5.660;2023-03-31T03:48:23;9.50;99.90
52495;DHT22;38405;53.212;5.660;2023-03-31T03:50:48;9.50;99.90
52495;DHT22;38405;53.212;5.660;2023-03-31T03:53:14;9.50;99.90
52495;DHT22;38405;53.212;5.660;2023-03-31T03:55:40;9.50;99.90
52495;DHT22;38405;53.212;5.660;2023-03-31T03:58:07;9.50;99.90
52495;DHT22;38405;53.212;5.660;2023-03-31T04:00:33;9.50;99.90
52495;DHT22;38405;53.212;5.660;2023-03-31T04:02:58;9.50;99.90
52495;DHT22;38405;53.212;5.660;2023-03-31T04:05:24;9.50;99.90
52495;DHT22;38405;53.212;5.660;2023-03-31T04:07:50;9.70;99.90
52495;DHT22;38405;53.212;5.660;2023-03-31T04:10:15;9.50;99.90
52495;DHT22;38405;53.212;5.660;2023-03-31T04:12:41;9.50;99.90
52495;DHT22;38405;53.212;5.660;2023-03-31T04:15:07;9.60;99.90
52495;DHT22;38405;53.212;5.660;2023-03-31T04:17:33;9.60;99.90
52495;DHT22;38405;53.212;5.660;2023-03-31T04:20:07;9.50;99.90
52495;DHT22;38405;53.212;5.660;2023-03-31T04:22:34;9.60;99.90
52495;DHT22;38405;53.212;5.660;2023-03-31T04:25:10;9.60;99.90
52495;DHT22;38405;53.212;5.660;2023-03-31T04:27:49;9.50;99.90
52495;DHT22;38405;53.212;5.660;2023-03-31T04:30:25;9.90;99.90
52495;DHT22;38405;53.212;5.660;2023-03-31T04:32:56;9.50;99.90
52495;DHT22;38405;53.212;5.660;2023-03-31T04:35:24;9.60;99.90
52495;DHT22;38405;53.212;5.660;2023-03-31T04:37:52;9.50;99.90
52495;DHT22;38405;53.212;5.660;2023-03-31T04:40:23;9.50;99.90
52495;DHT22;38405;53.212;5.660;2023-03-31T04:42:49;9.50;99.90
52495;DHT22;38405;53.212;5.660;2023-03-31T04:45:16;9.50;99.90
52495;DHT22;38405;53.212;5.660;2023-03-31T04:47:41;9.50;99.90
52495;DHT22;38405;53.212;5.660;2023-03-31T04:50:08;9.50;99.90
52495;DHT22;38405;53.212;5.660;2023-03-31T04:52:35;9.50;99.90
52495;DHT22;38405;53.212;5.660;2023-03-31T04:55:01;9.50;99.90
52495;DHT22;38405;53.212;5.660;2023-03-31T04:57:27;9.50;99.90
52495;DHT22;38405;53.212;5.660;2023-03-31T04:59:53;9.50;99.90
52495;DHT22;38405;53.212;5.660;2023-03-31T05:02:19;9.50;99.90
52495;DHT22;38405;53.212;5.660;2023-03-31T05:04:49;9.50;99.90
52495;DHT22;38405;53.212;5.660;2023-03-31T05:07:16;9.50;99.90
52495;DHT22;38405;53.212;5.660;2023-03-31T05:09:42;9.50;99.90
52495;DHT22;38405;53.212;5.660;2023-03-31T05:12:07;9.50;99.90
52495;DHT22;38405;53.212;5.660;2023-03-31T05:14:33;9.50;99.90
52495;DHT22;38405;53.212;5.660;2023-03-31T05:16:59;9.50;99.90
52495;DHT22;38405;53.212;5.660;2023-03-31T05:19:24;9.50;99.90
52495;DHT22;38405;53.212;5.660;2023-03-31T05:21:50;9.70;99.90
52495;DHT22;38405;53.212;5.660;2023-03-31T05:24:16;9.50;99.90
52495;DHT22;38405;53.212;5.660;2023-03-31T05:26:41;9.60;99.90
52495;DHT22;38405;53.212;5.660;2023-03-31T05:29:12;9.50;99.90
52495;DHT22;38405;53.212;5.660;2023-03-31T05:31:38;9.50;99.90
52495;DHT22;38405;53.212;5.660;2023-03-31T05:34:04;9.50;99.90
52495;DHT22;38405;53.212;5.660;2023-03-31T05:36:30;9.50;99.90
52495;DHT22;38405;53.212;5.660;2023-03-31T05:38:56;9.50;99.90
52495;DHT22;38405;53.212;5.660;2023-03-31T05:41:22;9.50;99.90
52495;DHT22;38405;53.212;5.660;2023-03-31T05:43:48;9.50;99.90
52495;DHT22;38405;53.212;5.660;2023-03-31T05:46:14;9.50;99.90
52495;DHT22;38405;53.212;5.660;2023-03-31T05:48:40;9.50;99.90
52495;DHT22;38405;53.212;5.660;2023-03-31T05:51:05;9.60;99.90
52495;DHT22;38405;53.212;5.660;2023-03-31T05:53:31;9.60;99.90
52495;DHT22;38405;53.212;5.660;2023-03-31T05:56:02;9.50;99.90
52495;DHT22;38405;53.212;5.660;2023-03-31T05:58:28;9.50;99.90
52495;DHT22;38405;53.212;5.660;2023-03-31T06:01:07;9.50;99.90
52495;DHT22;38405;53.212;5.660;2023-03-31T06:03:35;9.50;99.90
52495;DHT22;38405;53.212;5.660;2023-03-31T06:06:02;9.50;99.90
52495;DHT22;38405;53.212;5.660;2023-03-31T06:08:30;9.50;99.90
52495;DHT22;38405;53.212;5.660;2023-03-31T06:10:55;9.50;99.90
52495;DHT22;38405;53.212;5.660;2023-03-31T06:13:21;9.50;99.90
52495;DHT22;38405;53.212;5.660;2023-03-31T06:15:58;9.50;99.90
52495;DHT22;38405;53.212;5.660;2023-03-31T06:18:26;9.60;99.90
52495;DHT22;38405;53.212;5.660;2023-03-31T06:20:53;9.60;99.90
52495;DHT22;38405;53.212;5.660;2023-03-31T06:23:19;9.60;99.90
52495;DHT22;38405;53.212;5.660;2023-03-31T06:25:44;9.60;99.90
52495;DHT22;38405;53.212;5.660;2023-03-31T06:28:10;9.60;99.90
52495;DHT22;38405;53.212;5.660;2023-03-31T06:30:36;9.70;99.90
52495;DHT22;38405;53.212;5.660;2023-03-31T06:33:02;9.70;99.90
52495;DHT22;38405;53.212;5.660;2023-03-31T06:35:27;9.70;99.90
52495;DHT22;38405;53.212;5.660;2023-03-31T06:37:53;9.70;99.90
52495;DHT22;38405;53.212;5.660;2023-03-31T06:40:18;9.70;99.90
52495;DHT22;38405;53.212;5.660;2023-03-31T06:42:44;9.80;99.90
52495;DHT22;38405;53.212;5.660;2023-03-31T06:45:10;9.80;99.90
52495;DHT22;38405;53.212;5.660;2023-03-31T06:47:35;9.70;99.90
52495;DHT22;38405;53.212;5.660;2023-03-31T06:50:04;9.80;99.90
52495;DHT22;38405;53.212;5.660;2023-03-31T06:52:30;9.80;99.90
52495;DHT22;38405;53.212;5.660;2023-03-31T06:54:56;9.80;99.90
52495;DHT22;38405;53.212;5.660;2023-03-31T06:57:22;9.80;99.90
52495;DHT22;38405;53.212;5.660;2023-03-31T06:59:47;9.80;99.90
52495;DHT22;38405;53.212;5.660;2023-03-31T07:02:13;9.80;99.90
52495;DHT22;38405;53.212;5.660;2023-03-31T07:04:39;9.80;99.90
52495;DHT22;38405;53.212;5.660;2023-03-31T07:07:04;9.80;99.90
52495;DHT22;38405;53.212;5.660;2023-03-31T07:09:30;9.80;99.90
52495;DHT22;38405;53.212;5.660;2023-03-31T07:11:55;9.80;99.90
52495;DHT22;38405;53.212;5.660;2023-03-31T07:14:21;9.80;99.90
52495;DHT22;38405;53.212;5.660;2023-03-31T07:16:47;9.80;99.90
52495;DHT22;38405;53.212;5.660;2023-03-31T07:19:12;9.80;99.90
52495;DHT22;38405;53.212;5.660;2023-03-31T07:21:39;9.80;99.90
52495;DHT22;38405;53.212;5.660;2023-03-31T07:24:05;9.80;99.90
52495;DHT22;38405;53.212;5.660;2023-03-31T07:26:31;9.80;99.90
52495;DHT22;38405;53.212;5.660;2023-03-31T07:28:57;9.70;99.90
52495;DHT22;38405;53.212;5.660;2023-03-31T07:31:23;9.70;99.90
52495;DHT22;38405;53.212;5.660;2023-03-31T07:33:49;9.70;99.90
52495;DHT22;38405;53.212;5.660;2023-03-31T07:36:15;9.70;99.90
52495;DHT22;38405;53.212;5.660;2023-03-31T07:38:43;9.60;99.90
52495;DHT22;38405;53.212;5.660;2023-03-31T07:41:13;9.60;99.90
52495;DHT22;38405;53.212;5.660;2023-03-31T07:43:40;9.60;99.90
52495;DHT22;38405;53.212;5.660;2023-03-31T07:46:06;9.50;99.90
52495;DHT22;38405;53.212;5.660;2023-03-31T07:48:37;9.50;99.90
52495;DHT22;38405;53.212;5.660;2023-03-31T07:51:03;9.50;99.90
52495;DHT22;38405;53.212;5.660;2023-03-31T07:53:29;9.60;99.90
52495;DHT22;38405;53.212;5.660;2023-03-31T07:55:55;9.50;99.90
52495;DHT22;38405;53.212;5.660;2023-03-31T07:58:20;9.50;99.90
52495;DHT22;38405;53.212;5.660;2023-03-31T08:00:46;9.50;99.90
52495;DHT22;38405;53.212;5.660;2023-03-31T08:03:12;9.50;99.90
52495;DHT22;38405;53.212;5.660;2023-03-31T08:05:37;9.50;99.90
52495;DHT22;38405;53.212;5.660;2023-03-31T08:08:03;9.60;99.90
52495;DHT22;38405;53.212;5.660;2023-03-31T08:10:29;9.60;99.90
52495;DHT22;38405;53.212;5.660;2023-03-31T08:12:55;9.70;99.90
52495;DHT22;38405;53.212;5.660;2023-03-31T08:15:21;9.70;99.90
52495;DHT22;38405;53.212;5.660;2023-03-31T08:17:46;9.80;99.90
52495;DHT22;38405;53.212;5.660;2023-03-31T08:20:12;9.80;99.90
52495;DHT22;38405;53.212;5.660;2023-03-31T08:22:39;9.90;99.90
52495;DHT22;38405;53.212;5.660;2023-03-31T08:25:05;10.00;99.90
52495;DHT22;38405;53.212;5.660;2023-03-31T08:27:34;10.00;99.90
52495;DHT22;38405;53.212;5.660;2023-03-31T08:30:00;10.00;99.90
52495;DHT22;38405;53.212;5.660;2023-03-31T08:32:32;10.10;99.90
52495;DHT22;38405;53.212;5.660;2023-03-31T08:34:58;10.10;99.90
52495;DHT22;38405;53.212;5.660;2023-03-31T08:37:24;10.20;99.90
52495;DHT22;38405;53.212;5.660;2023-03-31T08:39:51;10.20;99.90
52495;DHT22;38405;53.212;5.660;2023-03-31T08:42:24;10.30;99.90
52495;DHT22;38405;53.212;5.660;2023-03-31T08:47:46;10.40;99.90
52495;DHT22;38405;53.212;5.660;2023-03-31T08:50:16;10.50;99.90
52495;DHT22;38405;53.212;5.660;2023-03-31T08:53:06;10.60;99.90
52495;DHT22;38405;53.212;5.660;2023-03-31T08:55:54;10.70;99.90
52495;DHT22;38405;53.212;5.660;2023-03-31T08:58:39;10.80;99.90
52495;DHT22;38405;53.212;5.660;2023-03-31T09:06:40;11.20;99.90
52495;DHT22;38405;53.212;5.660;2023-03-31T09:09:16;11.20;99.90
52495;DHT22;38405;53.212;5.660;2023-03-31T09:11:49;11.20;99.90
52495;DHT22;38405;53.212;5.660;2023-03-31T09:16:53;11.20;99.90
52495;DHT22;38405;53.212;5.660;2023-03-31T09:19:37;11.30;99.90
52495;DHT22;38405;53.212;5.660;2023-03-31T09:22:15;11.30;99.90
52495;DHT22;38405;53.212;5.660;2023-03-31T09:25:05;11.40;99.90
52495;DHT22;38405;53.212;5.660;2023-03-31T09:27:33;11.40;99.90
52495;DHT22;38405;53.212;5.660;2023-03-31T09:30:13;11.50;99.90
52495;DHT22;38405;53.212;5.660;2023-03-31T09:32:40;11.40;99.90
52495;DHT22;38405;53.212;5.660;2023-03-31T09:35:22;11.50;99.90
52495;DHT22;38405;53.212;5.660;2023-03-31T09:37:49;11.50;99.90
52495;DHT22;38405;53.212;5.660;2023-03-31T09:40:21;11.40;99.90
52495;DHT22;38405;53.212;5.660;2023-03-31T09:42:53;11.50;99.90
52495;DHT22;38405;53.212;5.660;2023-03-31T09:45:21;11.50;99.90
52495;DHT22;38405;53.212;5.660;2023-03-31T09:47:54;11.40;99.90
52495;DHT22;38405;53.212;5.660;2023-03-31T09:50:22;11.40;99.90
52495;DHT22;38405;53.212;5.660;2023-03-31T09:52:51;11.30;99.90
52495;DHT22;38405;53.212;5.660;2023-03-31T09:55:24;11.20;99.90
52495;DHT22;38405;53.212;5.660;2023-03-31T09:57:52;11.20;99.90
52495;DHT22;38405;53.212;5.660;2023-03-31T10:00:20;11.10;99.90
52495;DHT22;38405;53.212;5.660;2023-03-31T10:02:53;11.10;99.90
52495;DHT22;38405;53.212;5.660;2023-03-31T10:05:26;11.10;99.90
52495;DHT22;38405;53.212;5.660;2023-03-31T10:07:53;11.10;99.90
52495;DHT22;38405;53.212;5.660;2023-03-31T10:10:43;11.00;99.90
52495;DHT22;38405;53.212;5.660;2023-03-31T10:13:15;11.10;99.90
52495;DHT22;38405;53.212;5.660;2023-03-31T10:15:41;11.10;99.90
52495;DHT22;38405;53.212;5.660;2023-03-31T10:18:15;11.30;99.90
52495;DHT22;38405;53.212;5.660;2023-03-31T10:21:02;11.50;99.90
52495;DHT22;38405;53.212;5.660;2023-03-31T10:23:30;11.80;99.90
52495;DHT22;38405;53.212;5.660;2023-03-31T10:25:57;12.10;99.90
52495;DHT22;38405;53.212;5.660;2023-03-31T10:28:24;12.50;99.90
52495;DHT22;38405;53.212;5.660;2023-03-31T10:30:52;12.70;99.90
52495;DHT22;38405;53.212;5.660;2023-03-31T10:33:26;12.90;99.90
52495;DHT22;38405;53.212;5.660;2023-03-31T10:35:58;13.00;99.90
52495;DHT22;38405;53.212;5.660;2023-03-31T10:38:28;13.00;99.90
52495;DHT22;38405;53.212;5.660;2023-03-31T10:40:58;12.90;99.90
52495;DHT22;38405;53.212;5.660;2023-03-31T10:46:03;13.10;99.90
52495;DHT22;38405;53.212;5.660;2023-03-31T10:48:35;13.20;99.90
52495;DHT22;38405;53.212;5.660;2023-03-31T10:51:18;13.20;99.90
52495;DHT22;38405;53.212;5.660;2023-03-31T10:53:49;13.20;99.90
52495;DHT22;38405;53.212;5.660;2023-03-31T11:13:01;14.30;99.90
52495;DHT22;38405;53.212;5.660;2023-03-31T11:29:45;13.40;99.90
52495;DHT22;38405;53.212;5.660;2023-03-31T11:36:05;13.20;99.90
52495;DHT22;38405;53.212;5.660;2023-03-31T11:38:50;13.50;99.90
52495;DHT22;38405;53.212;5.660;2023-03-31T11:41:40;13.20;99.90
52495;DHT22;38405;53.212;5.660;2023-03-31T11:44:12;13.10;99.90
52495;DHT22;38405;53.212;5.660;2023-03-31T11:46:41;13.10;99.90
52495;DHT22;38405;53.212;5.660;2023-03-31T11:49:21;13.10;99.90
52495;DHT22;38405;53.212;5.660;2023-03-31T11:56:48;13.10;99.90
52495;DHT22;38405;53.212;5.660;2023-03-31T11:59:15;13.10;99.90
52495;DHT22;38405;53.212;5.660;2023-03-31T12:04:33;13.30;99.90
52495;DHT22;38405;53.212;5.660;2023-03-31T12:07:21;13.50;99.90
52495;DHT22;38405;53.212;5.660;2023-03-31T12:12:45;13.60;99.90
52495;DHT22;38405;53.212;5.660;2023-03-31T12:15:26;13.60;99.90
52495;DHT22;38405;53.212;5.660;2023-03-31T12:18:11;13.80;99.90
52495;DHT22;38405;53.212;5.660;2023-03-31T12:20:47;13.30;99.90
52495;DHT22;38405;53.212;5.660;2023-03-31T12:23:19;13.20;99.90
52495;DHT22;38405;53.212;5.660;2023-03-31T12:28:37;12.90;99.90
52495;DHT22;38405;53.212;5.660;2023-03-31T12:31:06;12.90;99.90
52495;DHT22;38405;53.212;5.660;2023-03-31T12:33:37;12.90;99.90
52495;DHT22;38405;53.212;5.660;2023-03-31T12:38:54;12.90;99.90
52495;DHT22;38405;53.212;5.660;2023-03-31T12:44:09;13.10;99.90
52495;DHT22;38405;53.212;5.660;2023-03-31T12:52:04;12.90;99.90
52495;DHT22;38405;53.212;5.660;2023-03-31T12:54:56;12.80;99.90
52495;DHT22;38405;53.212;5.660;2023-03-31T12:57:25;12.70;99.90
52495;DHT22;38405;53.212;5.660;2023-03-31T13:00:23;12.60;99.90
52495;DHT22;38405;53.212;5.660;2023-03-31T13:02:49;12.60;99.90
52495;DHT22;38405;53.212;5.660;2023-03-31T13:05:45;12.50;99.90
52495;DHT22;38405;53.212;5.660;2023-03-31T13:11:17;12.60;99.90
52495;DHT22;38405;53.212;5.660;2023-03-31T13:13:46;12.60;99.90
52495;DHT22;38405;53.212;5.660;2023-03-31T13:16:18;12.70;99.90
52495;DHT22;38405;53.212;5.660;2023-03-31T13:18:50;12.70;99.90
52495;DHT22;38405;53.212;5.660;2023-03-31T13:21:16;12.80;99.90
52495;DHT22;38405;53.212;5.660;2023-03-31T13:23:44;12.70;99.90
52495;DHT22;38405;53.212;5.660;2023-03-31T13:34:39;13.20;99.90
52495;DHT22;38405;53.212;5.660;2023-03-31T13:37:14;13.30;99.90
52495;DHT22;38405;53.212;5.660;2023-03-31T13:42:52;13.60;99.90
52495;DHT22;38405;53.212;5.660;2023-03-31T13:45:46;13.50;99.90
52495;DHT22;38405;53.212;5.660;2023-03-31T13:48:31;13.50;99.90
52495;DHT22;38405;53.212;5.660;2023-03-31T14:02:38;13.30;99.90
52495;DHT22;38405;53.212;5.660;2023-03-31T14:05:40;13.20;99.90
52495;DHT22;38405;53.212;5.660;2023-03-31T14:08:17;13.20;99.90
52495;DHT22;38405;53.212;5.660;2023-03-31T14:10:44;13.20;99.90
52495;DHT22;38405;53.212;5.660;2023-03-31T14:13:15;13.10;99.90
52495;DHT22;38405;53.212;5.660;2023-03-31T14:15:48;13.00;99.90
52495;DHT22;38405;53.212;5.660;2023-03-31T14:18:24;12.90;99.90
52495;DHT22;38405;53.212;5.660;2023-03-31T14:21:06;12.70;99.90
52495;DHT22;38405;53.212;5.660;2023-03-31T14:29:04;12.50;99.90
52495;DHT22;38405;53.212;5.660;2023-03-31T14:31:37;12.50;99.90
52495;DHT22;38405;53.212;5.660;2023-03-31T14:37:05;12.40;99.90
52495;DHT22;38405;53.212;5.660;2023-03-31T14:39:37;12.30;99.90
52495;DHT22;38405;53.212;5.660;2023-03-31T14:42:13;12.30;99.90
52495;DHT22;38405;53.212;5.660;2023-03-31T14:44:41;12.30;99.90
52495;DHT22;38405;53.212;5.660;2023-03-31T14:47:21;12.40;99.90
52495;DHT22;38405;53.212;5.660;2023-03-31T14:49:47;12.40;99.90
52495;DHT22;38405;53.212;5.660;2023-03-31T14:52:18;12.40;99.90
52495;DHT22;38405;53.212;5.660;2023-03-31T14:54:46;12.50;99.90
52495;DHT22;38405;53.212;5.660;2023-03-31T14:57:18;12.50;99.90
52495;DHT22;38405;53.212;5.660;2023-03-31T14:59:47;12.50;99.90
52495;DHT22;38405;53.212;5.660;2023-03-31T15:02:36;12.40;99.90
52495;DHT22;38405;53.212;5.660;2023-03-31T15:05:05;12.50;99.90
52495;DHT22;38405;53.212;5.660;2023-03-31T15:07:32;12.40;99.90
52495;DHT22;38405;53.212;5.660;2023-03-31T15:09:59;12.30;99.90
52495;DHT22;38405;53.212;5.660;2023-03-31T15:12:27;12.20;99.90
52495;DHT22;38405;53.212;5.660;2023-03-31T15:15:02;12.20;99.90
52495;DHT22;38405;53.212;5.660;2023-03-31T15:17:30;12.10;99.90
52495;DHT22;38405;53.212;5.660;2023-03-31T15:20:00;12.00;99.90
52495;DHT22;38405;53.212;5.660;2023-03-31T15:22:29;12.00;99.90
52495;DHT22;38405;53.212;5.660;2023-03-31T15:24:55;11.90;99.90
52495;DHT22;38405;53.212;5.660;2023-03-31T15:27:36;11.90;99.90
52495;DHT22;38405;53.212;5.660;2023-03-31T15:30:16;11.90;99.90
52495;DHT22;38405;53.212;5.660;2023-03-31T15:32:43;11.80;99.90
52495;DHT22;38405;53.212;5.660;2023-03-31T15:35:31;11.70;99.90
52495;DHT22;38405;53.212;5.660;2023-03-31T15:37:59;11.70;99.90
52495;DHT22;38405;53.212;5.660;2023-03-31T15:43:03;11.60;99.90
52495;DHT22;38405;53.212;5.660;2023-03-31T15:45:50;11.60;99.90
52495;DHT22;38405;53.212;5.660;2023-03-31T15:51:13;11.60;99.90
52495;DHT22;38405;53.212;5.660;2023-03-31T15:53:52;11.60;99.90
52495;DHT22;38405;53.212;5.660;2023-03-31T15:56:34;11.60;99.90
52495;DHT22;38405;53.212;5.660;2023-03-31T15:59:04;11.60;99.90
52495;DHT22;38405;53.212;5.660;2023-03-31T16:01:34;11.60;99.90
52495;DHT22;38405;53.212;5.660;2023-03-31T16:04:07;11.60;99.90
52495;DHT22;38405;53.212;5.660;2023-03-31T16:06:59;11.60;99.90
52495;DHT22;38405;53.212;5.660;2023-03-31T16:12:35;11.60;99.90
52495;DHT22;38405;53.212;5.660;2023-03-31T16:15:11;11.60;99.90
52495;DHT22;38405;53.212;5.660;2023-03-31T16:17:58;11.60;99.90
52495;DHT22;38405;53.212;5.660;2023-03-31T16:20:28;11.60;99.90
52495;DHT22;38405;53.212;5.660;2023-03-31T16:22:57;11.70;99.90
52495;DHT22;38405;53.212;5.660;2023-03-31T16:25:25;11.70;99.90
52495;DHT22;38405;53.212;5.660;2023-03-31T16:28:01;11.70;99.90
52495;DHT22;38405;53.212;5.660;2023-03-31T16:33:07;11.70;99.90
52495;DHT22;38405;53.212;5.660;2023-03-31T16:35:44;11.70;99.90
52495;DHT22;38405;53.212;5.660;2023-03-31T16:38:13;11.70;99.90
52495;DHT22;38405;53.212;5.660;2023-03-31T16:40:43;11.70;99.90
52495;DHT22;38405;53.212;5.660;2023-03-31T16:43:18;11.70;99.90
52495;DHT22;38405;53.212;5.660;2023-03-31T16:45:49;11.70;99.90
52495;DHT22;38405;53.212;5.660;2023-03-31T16:48:17;11.80;99.90
52495;DHT22;38405;53.212;5.660;2023-03-31T16:50:44;11.60;99.90
52495;DHT22;38405;53.212;5.660;2023-03-31T16:53:15;11.60;99.90
52495;DHT22;38405;53.212;5.660;2023-03-31T16:55:42;11.60;99.90
52495;DHT22;38405;53.212;5.660;2023-03-31T16:58:08;11.60;99.90
52495;DHT22;38405;53.212;5.660;2023-03-31T17:00:34;11.60;99.90
52495;DHT22;38405;53.212;5.660;2023-03-31T17:03:02;11.50;99.90
52495;DHT22;38405;53.212;5.660;2023-03-31T17:05:28;11.50;99.90
52495;DHT22;38405;53.212;5.660;2023-03-31T17:07:56;11.50;99.90
52495;DHT22;38405;53.212;5.660;2023-03-31T17:10:23;11.50;99.90
52495;DHT22;38405;53.212;5.660;2023-03-31T17:12:49;11.50;99.90
52495;DHT22;38405;53.212;5.660;2023-03-31T17:15:14;11.50;99.90
52495;DHT22;38405;53.212;5.660;2023-03-31T17:17:41;11.50;99.90
52495;DHT22;38405;53.212;5.660;2023-03-31T17:20:07;11.40;99.90
52495;DHT22;38405;53.212;5.660;2023-03-31T17:22:34;11.50;99.90
52495;DHT22;38405;53.212;5.660;2023-03-31T17:24:59;11.50;99.90
52495;DHT22;38405;53.212;5.660;2023-03-31T17:27:26;11.40;99.90
52495;DHT22;38405;53.212;5.660;2023-03-31T17:29:52;11.30;99.90
52495;DHT22;38405;53.212;5.660;2023-03-31T17:32:18;11.30;99.90
52495;DHT22;38405;53.212;5.660;2023-03-31T17:34:44;11.40;99.90
52495;DHT22;38405;53.212;5.660;2023-03-31T17:37:12;11.30;99.90
52495;DHT22;38405;53.212;5.660;2023-03-31T17:39:38;11.20;99.90
52495;DHT22;38405;53.212;5.660;2023-03-31T17:42:04;11.20;99.90
52495;DHT22;38405;53.212;5.660;2023-03-31T17:44:29;11.10;99.90
52495;DHT22;38405;53.212;5.660;2023-03-31T17:46:55;11.10;99.90
52495;DHT22;38405;53.212;5.660;2023-03-31T17:49:22;11.10;99.90
52495;DHT22;38405;53.212;5.660;2023-03-31T17:51:48;11.00;99.90
52495;DHT22;38405;53.212;5.660;2023-03-31T17:54:14;10.90;99.90
52495;DHT22;38405;53.212;5.660;2023-03-31T17:56:40;10.90;99.90
52495;DHT22;38405;53.212;5.660;2023-03-31T17:59:06;10.80;99.90
52495;DHT22;38405;53.212;5.660;2023-03-31T18:01:32;10.70;99.90
52495;DHT22;38405;53.212;5.660;2023-03-31T18:03:57;10.70;99.90
52495;DHT22;38405;53.212;5.660;2023-03-31T18:06:23;10.70;99.90
52495;DHT22;38405;53.212;5.660;2023-03-31T18:08:49;10.70;99.90
52495;DHT22;38405;53.212;5.660;2023-03-31T18:11:16;10.60;99.90
52495;DHT22;38405;53.212;5.660;2023-03-31T18:13:41;10.60;99.90
52495;DHT22;38405;53.212;5.660;2023-03-31T18:16:08;10.60;99.90
52495;DHT22;38405;53.212;5.660;2023-03-31T18:18:36;10.50;99.90
52495;DHT22;38405;53.212;5.660;2023-03-31T18:21:03;10.50;99.90
52495;DHT22;38405;53.212;5.660;2023-03-31T18:23:29;10.50;99.90
52495;DHT22;38405;53.212;5.660;2023-03-31T18:25:54;10.50;99.90
52495;DHT22;38405;53.212;5.660;2023-03-31T18:28:21;10.50;99.90
52495;DHT22;38405;53.212;5.660;2023-03-31T18:30:46;10.50;99.90
52495;DHT22;38405;53.212;5.660;2023-03-31T18:33:12;10.50;99.90
52495;DHT22;38405;53.212;5.660;2023-03-31T18:35:38;10.50;99.90
52495;DHT22;38405;53.212;5.660;2023-03-31T18:38:03;10.40;99.90
52495;DHT22;38405;53.212;5.660;2023-03-31T18:40:29;10.50;99.90
52495;DHT22;38405;53.212;5.660;2023-03-31T18:42:55;10.50;99.90
52495;DHT22;38405;53.212;5.660;2023-03-31T18:45:21;10.50;99.90
52495;DHT22;38405;53.212;5.660;2023-03-31T18:47:47;10.50;99.90